Back to top

Greybull, WY weather

South Big Horn County Airport, Greybull, WY: 8/07/2020 14:53
Visibility10 statute milesclear sky
View 7-Day Forecast
Area Summary
Sky/CloudsSky Clear
Weather [last 24 hours]None
Pressure29.83 in.Hg (1010 hPa)
3-hour Pressure Tendency0.02953 in.Hg (1 hPa) Decreasing, then steady, or decreasing then decreasing more slowly
Dew Point37.9 °F (3.3 °C)
Relative Humidity13.4 %
Temperature96.1 °F (35.6 °C)red thermometer
Reading TimeMinimum to Maximum Temperature
6-hr ending 8/7@11:5360.1 °F to 88 °F (15.6 °C to 31.1 °C)
6-hr ending 8/7@05:5360.1 °F to 73.9 °F (15.6 °C to 23.3 °C)
6-hr ending 8/6@23:5372 °F to 93.9 °F (22.2 °C to 34.4 °C)
6-hr ending 8/6@17:5384 °F to 96.1 °F (28.9 °C to 35.6 °C)
24-hr ending 8/7@00:5361 °F to 96.1 °F (16.1 °C to 35.6 °C)
Wind9.21 MPH (8 KT) green arrow pointing 247.5 degrees
Wind FromWest/Southwest (250 Degrees)
Rolling 24-hr Peak Wind38 MPH (33 KT) on 8/6@21:52
Rolling 24-hr Peak Wind FromNorthwest (310 Degrees)
Twilight Begins05:33Sunshine Yesterday
Sunrise06:06N/A
Sunset20:29
Twilight Ends21:01
METARKGEY 072053Z AUTO 25008KT 220V290 10SM CLR 36/03 A2983 RMK AO2 SLP052 T03560033 56010
Tags: